Time;durP1;ratioP1;P1;durP2;ratioP2;P2;SDS_P1;SDS_P2;PMS_P1;PMS_P2;Temp;Humidity;BMP_temperature;BMP_pressure;BME280_temperature;BME280_humidity;BME280_pressure;Samples;Min_cycle;Max_cycle;Signal;HPM_P1;HPM_P2
2023/06/24 00:02:11;;;;;;;11.45;8.30;;;;;;;23.70;57.76;99987.71;1778155;80;21145;-78
2023/06/24 00:04:41;;;;;;;11.33;8.35;;;;;;;23.66;58.05;99986.06;1780991;80;21161;-78
2023/06/24 00:07:10;;;;;;;11.53;8.05;;;;;;;23.59;58.25;99986.14;1781083;80;21146;-79
2023/06/24 00:09:39;;;;;;;10.90;8.73;;;;;;;23.56;58.45;99984.77;1780873;80;21114;-79
2023/06/24 00:12:09;;;;;;;14.85;8.73;;;;;;;23.57;58.48;99983.63;1781013;80;21150;-79
2023/06/24 00:14:38;;;;;;;13.85;8.80;;;;;;;23.56;58.51;99990.36;1780850;80;21137;-80
2023/06/24 00:17:08;;;;;;;11.38;8.65;;;;;;;23.57;58.67;99985.59;1780870;80;21609;-78
2023/06/24 00:19:39;;;;;;;12.30;8.43;;;;;;;23.60;58.68;99987.80;1781134;80;21237;-80
2023/06/24 00:22:08;;;;;;;12.73;8.93;;;;;;;23.60;58.73;99985.84;1780662;80;21169;-79
2023/06/24 00:24:39;;;;;;;12.73;8.83;;;;;;;23.60;58.76;99992.00;1780866;80;21557;-78
2023/06/24 00:27:08;;;;;;;14.53;9.95;;;;;;;23.60;58.76;99995.63;1781343;80;21082;-78
2023/06/24 00:29:38;;;;;;;16.87;9.75;;;;;;;23.59;58.41;99992.56;1781143;80;21110;-75
2023/06/24 00:32:08;;;;;;;15.40;9.45;;;;;;;23.59;58.84;99988.38;1780843;80;21193;-79
2023/06/24 00:34:38;;;;;;;18.42;10.38;;;;;;;23.58;58.99;99987.27;1781060;80;21094;-80
2023/06/24 00:37:08;;;;;;;15.85;9.93;;;;;;;23.59;58.98;99986.14;1781000;80;21110;-79
2023/06/24 00:39:36;;;;;;;14.25;10.63;;;;;;;23.59;59.08;99986.97;1753351;80;21622;-78
2023/06/24 00:42:07;;;;;;;16.02;10.25;;;;;;;23.61;58.64;99982.48;1780993;80;21078;-78
2023/06/24 00:44:37;;;;;;;14.95;9.75;;;;;;;23.65;58.57;99983.56;1782500;80;21125;-78
2023/06/24 00:47:08;;;;;;;13.70;10.60;;;;;;;23.66;58.55;99979.07;1782449;80;21159;-78
2023/06/24 00:49:37;;;;;;;16.25;10.20;;;;;;;23.69;58.38;99972.89;1778416;80;21145;-78
2023/06/24 00:52:10;;;;;;;14.18;10.48;;;;;;;23.71;58.19;99966.43;1770395;80;21117;-79
2023/06/24 00:54:39;;;;;;;14.05;10.65;;;;;;;23.78;58.14;99958.25;1767925;81;22051;-76
2023/06/24 00:57:08;;;;;;;13.35;10.63;;;;;;;23.76;58.19;99954.35;1768034;81;21121;-78
2023/06/24 00:59:39;;;;;;;15.25;11.08;;;;;;;23.76;58.30;99950.72;1767974;81;21113;-80
2023/06/24 01:02:08;;;;;;;18.90;13.22;;;;;;;23.76;58.61;99954.92;1767865;81;21145;-78
2023/06/24 01:04:38;;;;;;;49.90;29.00;;;;;;;23.76;59.00;99950.16;1740483;81;21125;-78
2023/06/24 01:07:08;;;;;;;60.85;32.42;;;;;;;23.74;59.28;99951.02;1767853;81;21175;-79
2023/06/24 01:09:39;;;;;;;231.75;104.58;;;;;;;23.71;59.51;99951.05;1735620;81;21157;-76
2023/06/24 01:12:10;;;;;;;600.60;299.10;;;;;;;23.67;59.73;99949.13;1768000;81;21256;-74
2023/06/24 01:14:39;;;;;;;482.43;216.20;;;;;;;23.65;60.01;99948.59;1767829;81;21140;-77
2023/06/24 01:17:17;;;;;;;568.37;259.48;;;;;;;23.59;60.34;99942.78;1768143;81;21537;-78
2023/06/24 01:19:54;;;;;;;561.28;253.60;;;;;;;23.54;60.78;99940.84;1767905;81;21586;-73
2023/06/24 01:22:50;;;;;;;562.62;233.72;;;;;;;23.45;61.13;99948.20;1768153;81;21160;-79
2023/06/24 01:25:55;;;;;;;492.98;199.15;;;;;;;23.37;61.51;99948.80;1703443;84;21161;-78
2023/06/24 01:28:48;;;;;;;444.90;151.42;;;;;;;23.30;61.82;99951.94;1699703;84;21188;-79
2023/06/24 01:31:46;;;;;;;333.75;118.95;;;;;;;23.24;62.21;99954.51;1726175;83;21369;-78
2023/06/24 01:34:30;;;;;;;238.92;89.17;;;;;;;23.19;62.66;99955.95;1735985;82;21153;-76
2023/06/24 01:37:29;;;;;;;269.73;92.78;;;;;;;23.16;63.06;99953.73;1770048;81;21165;-78
2023/06/24 01:40:10;;;;;;;;;;;;;;;23.13;63.42;99954.88;1770318;80;21093;-78
2023/06/24 01:42:42;;;;;;;154.27;59.93;;;;;;;23.07;63.72;99952.12;1766995;80;20271;-79
2023/06/24 01:45:15;;;;;;;63.00;38.33;;;;;;;23.01;63.89;99956.65;1765455;81;21558;-77
2023/06/24 01:47:47;;;;;;;59.60;32.38;;;;;;;23.03;63.92;99958.59;1764455;81;21160;-79
2023/06/24 01:50:20;;;;;;;45.95;28.42;;;;;;;23.04;63.93;99962.48;1764147;81;21164;-79
2023/06/24 01:52:48;;;;;;;43.55;26.27;;;;;;;23.07;63.96;99969.46;1751176;81;21114;-78
2023/06/24 01:55:20;;;;;;;36.15;22.87;;;;;;;23.08;64.09;99979.51;1749554;81;21161;-77
2023/06/24 01:57:49;;;;;;;34.90;22.77;;;;;;;23.05;64.26;99980.93;1749568;82;21580;-79
2023/06/24 02:00:18;;;;;;;36.08;25.37;;;;;;;23.01;64.59;99978.44;1751122;82;21114;-73
2023/06/24 02:02:50;;;;;;;44.38;31.93;;;;;;;22.98;64.88;99983.22;1751117;81;21149;-79
2023/06/24 02:05:21;;;;;;;42.75;31.62;;;;;;;22.99;65.06;99988.23;1784006;80;21153;-78
2023/06/24 02:07:51;;;;;;;30.48;23.00;;;;;;;22.97;65.13;99989.92;1759812;81;21129;-79
2023/06/24 02:10:20;;;;;;;27.80;19.57;;;;;;;23.01;65.36;99998.56;1759639;81;21179;-78
2023/06/24 02:12:50;;;;;;;20.97;15.90;;;;;;;22.99;65.57;100001.65;1784164;80;21118;-77
2023/06/24 02:15:20;;;;;;;43.25;30.45;;;;;;;22.96;65.72;99998.04;1783998;80;21130;-78
2023/06/24 02:17:51;;;;;;;78.40;49.48;;;;;;;22.99;65.97;100000.25;1785539;80;21110;-77
2023/06/24 02:20:21;;;;;;;90.30;54.58;;;;;;;23.03;66.05;99999.11;1783923;80;21118;-79
2023/06/24 02:22:54;;;;;;;54.65;37.17;;;;;;;23.05;66.18;99997.70;1784185;80;21146;-79
2023/06/24 02:25:24;;;;;;;79.15;52.98;;;;;;;23.06;66.24;100007.75;1783872;80;21548;-79
2023/06/24 02:27:55;;;;;;;49.30;31.68;;;;;;;23.11;66.44;100009.67;1760451;80;21642;-75
2023/06/24 02:30:24;;;;;;;27.48;19.80;;;;;;;23.14;66.42;100006.30;1784168;80;21102;-78
2023/06/24 02:32:54;;;;;;;31.65;21.33;;;;;;;23.16;66.46;100011.59;1761203;80;21118;-78
2023/06/24 02:35:23;;;;;;;55.50;34.30;;;;;;;23.17;66.58;100001.52;1784193;80;21121;-77
2023/06/24 02:37:52;;;;;;;45.52;30.65;;;;;;;23.19;66.64;100001.23;1784084;80;21094;-77
2023/06/24 02:40:22;;;;;;;27.35;18.48;;;;;;;23.22;66.70;100002.05;1784148;80;21612;-78
2023/06/24 02:42:52;;;;;;;20.25;15.85;;;;;;;23.25;66.72;99993.91;1784051;80;21573;-77
2023/06/24 02:45:21;;;;;;;27.77;17.12;;;;;;;23.30;66.82;99999.47;1784164;80;21573;-79
2023/06/24 02:47:50;;;;;;;26.15;16.87;;;;;;;23.32;66.89;99993.58;1784077;80;21146;-78
2023/06/24 02:50:19;;;;;;;26.52;18.32;;;;;;;23.33;66.91;100004.47;1755378;80;21106;-79
2023/06/24 02:52:49;;;;;;;39.00;25.10;;;;;;;23.36;67.00;100007.25;1781292;80;21193;-79
2023/06/24 02:55:20;;;;;;;43.48;26.37;;;;;;;23.38;67.18;100008.62;1781336;80;21165;-79
2023/06/24 02:57:51;;;;;;;60.40;32.95;;;;;;;23.42;67.39;100009.47;1780766;80;21118;-80
2023/06/24 03:00:33;;;;;;;52.05;30.80;;;;;;;23.42;67.45;100008.91;1778135;80;21126;-79
2023/06/24 03:03:06;;;;;;;55.73;31.40;;;;;;;23.42;67.82;100003.31;1751727;80;21158;-78
2023/06/24 03:05:36;;;;;;;51.98;31.23;;;;;;;23.40;68.12;100011.13;1781230;80;21165;-76
2023/06/24 03:08:07;;;;;;;56.60;32.20;;;;;;;23.42;68.11;100003.31;1781258;80;21177;-78
2023/06/24 03:10:37;;;;;;;66.55;37.35;;;;;;;23.49;67.93;100016.96;1780989;80;21127;-79
2023/06/24 03:13:09;;;;;;;77.40;42.88;;;;;;;23.52;67.94;100022.80;1743701;80;21185;-76
2023/06/24 03:15:41;;;;;;;60.98;35.98;;;;;;;23.55;68.15;100020.02;1776219;80;21126;-79
2023/06/24 03:18:11;;;;;;;57.48;31.77;;;;;;;23.57;68.18;100013.00;1781153;80;21107;-78
2023/06/24 03:20:41;;;;;;;53.78;30.70;;;;;;;23.60;68.21;100018.02;1781327;80;21149;-79
2023/06/24 03:23:12;;;;;;;53.80;30.48;;;;;;;23.62;68.40;100019.11;1780876;80;21119;-79
2023/06/24 03:25:41;;;;;;;30.00;19.45;;;;;;;23.60;68.33;100023.61;1781004;80;21130;-79
2023/06/24 03:28:12;;;;;;;32.95;21.30;;;;;;;23.65;68.27;100022.16;1781012;80;21585;-79
2023/06/24 03:30:42;;;;;;;43.35;23.57;;;;;;;23.70;68.00;100020.72;1780333;80;21134;-78
2023/06/24 03:33:16;;;;;;;29.92;18.32;;;;;;;23.77;68.18;100018.14;1780822;80;21114;-79
2023/06/24 03:35:46;;;;;;;19.12;14.33;;;;;;;23.81;67.94;100014.45;1781153;80;21126;-78
2023/06/24 03:38:18;;;;;;;20.05;13.08;;;;;;;23.86;67.63;100012.17;1780824;80;21404;-79
2023/06/24 03:40:48;;;;;;;22.32;14.63;;;;;;;23.90;67.19;100018.84;1781068;80;21106;-78
2023/06/24 03:43:18;;;;;;;23.10;13.88;;;;;;;23.96;67.33;100019.06;1781087;80;21558;-80
2023/06/24 03:45:47;;;;;;;20.35;13.10;;;;;;;24.03;67.64;100020.37;1780839;80;21129;-76
2023/06/24 03:48:16;;;;;;;23.10;12.23;;;;;;;24.09;67.65;100022.59;1743437;80;21599;-77
2023/06/24 03:50:45;;;;;;;13.93;10.72;;;;;;;24.13;67.34;100025.63;1780919;80;21174;-78
2023/06/24 03:53:15;;;;;;;18.60;11.25;;;;;;;24.15;66.78;100024.77;1769175;80;21121;-79
2023/06/24 03:55:45;;;;;;;16.12;12.03;;;;;;;24.17;66.54;100013.55;1767891;80;21109;-65
2023/06/24 03:58:16;;;;;;;13.98;10.13;;;;;;;24.22;66.46;100012.09;1768138;81;21160;-77
2023/06/24 04:00:46;;;;;;;16.77;9.90;;;;;;;24.26;66.05;100006.73;1734913;81;21110;-79
2023/06/24 04:03:18;;;;;;;14.23;9.80;;;;;;;24.29;65.71;100013.16;1767971;81;21192;-78
2023/06/24 04:05:48;;;;;;;16.25;9.38;;;;;;;24.31;65.37;100013.13;1767597;81;21121;-77
2023/06/24 04:08:19;;;;;;;16.80;9.95;;;;;;;24.34;65.29;100012.53;1767913;81;21293;-79
2023/06/24 04:10:48;;;;;;;18.90;10.00;;;;;;;24.43;65.06;100027.28;1767866;81;21094;-78
2023/06/24 04:13:18;;;;;;;14.05;9.63;;;;;;;24.45;64.49;100020.81;1768053;81;21169;-78
2023/06/24 04:15:47;;;;;;;14.85;9.75;;;;;;;24.43;64.58;100028.67;1768402;81;21101;-76
2023/06/24 04:18:16;;;;;;;13.93;9.93;;;;;;;24.43;64.44;100027.28;1768301;81;21105;-79
2023/06/24 04:20:46;;;;;;;16.50;9.93;;;;;;;24.44;64.30;100040.15;1767981;81;21351;-75
2023/06/24 04:23:16;;;;;;;13.78;9.83;;;;;;;24.44;64.37;100027.55;1768175;81;21122;-75
2023/06/24 04:25:46;;;;;;;13.55;9.40;;;;;;;24.46;64.45;100021.08;1767930;81;21165;-68
2023/06/24 04:28:16;;;;;;;15.53;9.73;;;;;;;24.50;64.23;100018.78;1767849;81;21136;-79
2023/06/24 04:30:45;;;;;;;15.70;9.25;;;;;;;24.55;64.09;100015.08;1768012;81;21113;-79
2023/06/24 04:33:14;;;;;;;16.17;9.65;;;;;;;24.57;63.91;100021.22;1767833;81;21657;-78
2023/06/24 04:35:44;;;;;;;15.50;9.35;;;;;;;24.58;63.87;100030.72;1767925;81;21152;-80
2023/06/24 04:38:18;;;;;;;14.68;9.40;;;;;;;24.65;63.83;100021.38;1767963;81;21137;-79
2023/06/24 04:40:45;;;;;;;16.30;9.65;;;;;;;24.76;63.34;100012.30;1767942;81;21161;-79
2023/06/24 04:43:14;;;;;;;10.72;8.18;;;;;;;24.86;62.50;100021.97;1767799;81;21172;-78
2023/06/24 04:45:44;;;;;;;14.40;8.90;;;;;;;24.95;61.99;100010.91;1740114;81;21141;-76
2023/06/24 04:48:13;;;;;;;14.68;8.68;;;;;;;25.04;61.81;100006.89;1768028;81;21144;-78
2023/06/24 04:50:42;;;;;;;11.93;8.63;;;;;;;25.10;61.70;100007.08;1768210;81;21137;-78
2023/06/24 04:53:11;;;;;;;13.25;9.00;;;;;;;25.13;61.81;100006.47;1767970;80;21105;-77
2023/06/24 04:55:41;;;;;;;14.35;8.53;;;;;;;25.17;61.77;100008.37;1768025;81;21144;-75
2023/06/24 04:58:10;;;;;;;15.23;8.55;;;;;;;25.19;61.46;100003.86;1768336;81;21548;-76
2023/06/24 05:00:40;;;;;;;12.00;8.63;;;;;;;25.19;61.19;100000.48;1768028;80;21157;-78
2023/06/24 05:03:09;;;;;;;13.25;8.78;;;;;;;25.19;61.22;100002.45;1767883;81;21121;-81
2023/06/24 05:05:39;;;;;;;14.05;8.45;;;;;;;25.20;61.21;99993.73;1768865;81;21595;-78
2023/06/24 05:08:09;;;;;;;13.13;8.38;;;;;;;25.19;61.19;99993.47;1770549;81;21106;-78
2023/06/24 05:10:42;;;;;;;16.37;7.60;;;;;;;25.20;61.09;100005.52;1771153;81;21552;-75
2023/06/24 05:13:13;;;;;;;11.73;7.67;;;;;;;25.18;60.87;99998.81;1770399;81;21149;-76
2023/06/24 05:15:44;;;;;;;14.83;7.85;;;;;;;25.21;60.90;100008.59;1769255;80;21137;-78
2023/06/24 05:18:15;;;;;;;14.15;7.70;;;;;;;25.23;60.35;100003.51;1768231;81;21137;-77
2023/06/24 05:20:44;;;;;;;17.75;8.30;;;;;;;25.24;60.32;100014.42;1767877;81;21606;-78
2023/06/24 05:23:14;;;;;;;13.08;7.87;;;;;;;25.29;60.38;100009.30;1768202;81;21191;-77
2023/06/24 05:25:43;;;;;;;12.28;7.08;;;;;;;25.34;60.24;100014.83;1767834;80;21145;-78
2023/06/24 05:28:13;;;;;;;10.95;6.87;;;;;;;25.37;60.00;100006.41;1768008;81;21140;-78
2023/06/24 05:30:45;;;;;;;12.45;7.47;;;;;;;25.37;60.19;100012.84;1767921;81;21598;-79
2023/06/24 05:33:15;;;;;;;11.95;7.42;;;;;;;25.37;60.42;100006.41;1767908;80;21141;-79
2023/06/24 05:35:45;;;;;;;11.28;7.30;;;;;;;25.36;60.19;100017.33;1767759;81;21086;-74
2023/06/24 05:38:16;;;;;;;16.57;8.48;;;;;;;25.35;59.95;100006.67;1768075;81;21155;-78
2023/06/24 05:40:45;;;;;;;15.72;7.28;;;;;;;25.34;59.88;100014.83;1767743;81;21109;-80
2023/06/24 05:43:15;;;;;;;11.80;6.70;;;;;;;25.35;59.78;100015.09;1767773;81;21109;-80
2023/06/24 05:45:45;;;;;;;15.60;7.15;;;;;;;25.34;59.45;100002.20;1767895;81;21141;-77
2023/06/24 05:48:18;;;;;;;15.18;6.78;;;;;;;25.33;59.25;100010.36;1767595;80;21172;-79
2023/06/24 05:50:46;;;;;;;11.33;6.70;;;;;;;25.32;59.35;100014.88;1767898;81;21256;-78
2023/06/24 05:53:16;;;;;;;12.82;6.87;;;;;;;25.33;59.55;100012.33;1776192;80;21114;-78
2023/06/24 05:55:45;;;;;;;14.28;7.75;;;;;;;25.35;59.64;100012.86;1780786;80;21546;-65
2023/06/24 05:58:15;;;;;;;14.47;6.33;;;;;;;25.37;59.67;100005.84;1780972;80;21545;-79
2023/06/24 06:00:44;;;;;;;12.45;6.45;;;;;;;25.38;59.66;100020.69;1781508;80;21538;-78
2023/06/24 06:03:13;;;;;;;12.25;6.60;;;;;;;25.37;59.46;100019.86;1781487;80;21558;-79
2023/06/24 06:05:42;;;;;;;10.23;6.50;;;;;;;25.37;59.37;100019.86;1780947;80;21210;-77
2023/06/24 06:08:13;;;;;;;12.33;6.55;;;;;;;25.34;59.42;100020.44;1780984;80;21520;-79
2023/06/24 06:10:44;;;;;;;11.83;6.60;;;;;;;25.35;59.52;100021.27;1780862;80;21145;-79
2023/06/24 06:13:14;;;;;;;20.65;6.85;;;;;;;25.35;59.60;100021.27;1781220;80;21172;-79
2023/06/24 06:15:43;;;;;;;12.68;6.55;;;;;;;25.33;59.73;100020.17;1780876;80;21142;-79
2023/06/24 06:18:13;;;;;;;12.70;6.53;;;;;;;25.32;60.02;100023.28;1780824;80;21114;-77
2023/06/24 06:20:43;;;;;;;12.75;6.62;;;;;;;25.30;60.10;100017.98;1780843;80;21158;-78
2023/06/24 06:23:12;;;;;;;12.45;5.97;;;;;;;25.32;60.26;100006.45;1780799;80;21114;-79
2023/06/24 06:25:41;;;;;;;13.05;6.37;;;;;;;25.34;60.37;99999.41;1780911;80;21126;-79
2023/06/24 06:28:09;;;;;;;13.60;6.90;;;;;;;25.37;60.48;100000.80;1781228;80;21682;-79
2023/06/24 06:30:40;;;;;;;10.70;6.00;;;;;;;25.40;60.51;99998.21;1781130;80;21181;-79
2023/06/24 06:33:09;;;;;;;14.75;6.70;;;;;;;25.42;60.60;99998.73;1781034;80;21153;-81
2023/06/24 06:35:38;;;;;;;15.48;6.55;;;;;;;25.43;60.62;99996.20;1780782;80;21154;-74
2023/06/24 06:38:07;;;;;;;11.53;6.53;;;;;;;25.45;60.68;99999.53;1780901;80;21095;-79
2023/06/24 06:40:38;;;;;;;12.68;6.12;;;;;;;25.47;60.39;100001.45;1781064;80;21129;-80
2023/06/24 06:43:08;;;;;;;14.68;6.47;;;;;;;25.48;60.27;100007.33;1780861;80;21118;-76
2023/06/24 06:45:39;;;;;;;18.17;5.92;;;;;;;25.52;60.37;100007.55;1781160;80;21557;-79
2023/06/24 06:48:10;;;;;;;18.48;6.45;;;;;;;25.55;60.35;100002.16;1781301;80;21165;-79
2023/06/24 06:50:41;;;;;;;15.58;6.30;;;;;;;25.56;60.28;100008.61;1781009;80;21090;-80
2023/06/24 06:53:10;;;;;;;14.43;6.35;;;;;;;25.57;60.28;100003.25;1743355;80;21619;-81
2023/06/24 06:55:42;;;;;;;10.82;6.10;;;;;;;25.62;60.27;100006.55;1753176;80;21114;-78
2023/06/24 06:58:13;;;;;;;12.15;6.30;;;;;;;25.65;60.21;100005.92;1780912;80;21114;-80
2023/06/24 07:00:43;;;;;;;10.98;4.92;;;;;;;25.68;59.78;100009.55;1781183;80;21154;-78
2023/06/24 07:03:12;;;;;;;9.38;5.53;;;;;;;25.67;59.61;100002.27;1780908;80;21107;-80
2023/06/24 07:05:42;;;;;;;17.82;7.30;;;;;;;25.67;59.83;99992.45;1781053;80;21901;-80
2023/06/24 07:08:12;;;;;;;11.60;5.78;;;;;;;25.69;60.34;99990.17;1780849;80;21138;-80
2023/06/24 07:10:41;;;;;;;13.22;6.12;;;;;;;25.75;60.73;99991.75;1780902;80;21537;-76
2023/06/24 07:13:10;;;;;;;14.73;5.92;;;;;;;25.77;60.94;99989.47;1781247;80;21106;-79
2023/06/24 07:15:39;;;;;;;17.60;6.50;;;;;;;25.74;61.19;99983.89;1753557;80;21106;-80
2023/06/24 07:18:09;;;;;;;17.65;7.42;;;;;;;25.80;61.62;99986.03;1780943;80;21155;-79
2023/06/24 07:20:39;;;;;;;14.63;6.87;;;;;;;25.84;61.85;99992.70;1781042;80;21150;-79
2023/06/24 07:23:11;;;;;;;11.85;5.50;;;;;;;25.93;61.98;99995.05;1781024;80;21158;-79
2023/06/24 07:25:41;;;;;;;12.40;5.58;;;;;;;26.02;61.70;99990.98;1780967;80;21106;-79
2023/06/24 07:28:10;;;;;;;13.55;5.95;;;;;;;26.06;61.61;99999.88;1781275;80;21115;-80
2023/06/24 07:30:42;;;;;;;11.83;5.72;;;;;;;26.11;61.24;100002.59;1781042;80;21130;-76
2023/06/24 07:33:11;;;;;;;11.12;5.05;;;;;;;26.17;60.92;100006.13;1780947;80;21146;-80
2023/06/24 07:35:41;;;;;;;10.48;5.22;;;;;;;26.26;60.54;100017.48;1781064;80;21130;-78
2023/06/24 07:38:11;;;;;;;13.45;5.65;;;;;;;26.30;60.31;100024.14;1781051;80;21245;-75
2023/06/24 07:40:39;;;;;;;13.20;5.58;;;;;;;26.39;60.01;100034.38;1753100;80;21118;-78
2023/06/24 07:43:08;;;;;;;12.73;5.10;;;;;;;26.51;59.46;100037.48;1780989;80;21612;-78
2023/06/24 07:45:37;;;;;;;11.45;5.62;;;;;;;26.68;59.23;100050.94;1781663;80;21130;-75
2023/06/24 07:48:08;;;;;;;12.45;5.60;;;;;;;26.91;58.52;100052.42;1742004;80;21183;-80
2023/06/24 07:50:39;;;;;;;14.83;5.60;;;;;;;27.07;57.79;100046.75;1765110;79;21092;-78
2023/06/24 07:53:08;;;;;;;12.47;5.30;;;;;;;27.18;57.32;100041.14;1757198;80;21106;-77
2023/06/24 07:55:38;;;;;;;11.88;5.40;;;;;;;27.22;56.89;100036.55;1750392;80;21161;-79
2023/06/24 07:58:07;;;;;;;13.80;6.08;;;;;;;27.22;57.00;100030.92;1750951;82;21179;-79
2023/06/24 08:00:37;;;;;;;11.83;5.42;;;;;;;27.32;56.95;100042.54;1757519;82;21148;-74
2023/06/24 08:03:08;;;;;;;12.10;5.33;;;;;;;27.36;56.69;100035.95;1757443;82;21129;-77
2023/06/24 08:05:38;;;;;;;14.13;5.22;;;;;;;27.33;56.61;100039.41;1757375;81;21148;-77
2023/06/24 08:08:08;;;;;;;13.75;5.80;;;;;;;27.29;56.70;100043.14;1756569;80;21118;-77
2023/06/24 08:10:37;;;;;;;10.88;5.28;;;;;;;27.29;56.78;100039.75;1754210;82;21146;-77
2023/06/24 08:13:06;;;;;;;19.55;6.67;;;;;;;27.31;56.80;100047.33;1733028;83;21153;-75
2023/06/24 08:15:36;;;;;;;11.38;5.15;;;;;;;27.33;56.94;100042.80;1754791;82;21130;-73
2023/06/24 08:18:08;;;;;;;12.28;5.40;;;;;;;27.31;56.97;100044.52;1754466;82;21177;-73
2023/06/24 08:20:37;;;;;;;13.05;5.10;;;;;;;27.35;56.58;100047.53;1754953;82;21169;-73
2023/06/24 08:23:07;;;;;;;12.13;5.80;;;;;;;27.34;56.48;100048.11;1754667;82;21142;-74
2023/06/24 08:25:37;;;;;;;10.28;5.42;;;;;;;27.30;56.47;100053.25;1756424;82;21145;-73
2023/06/24 08:28:06;;;;;;;9.68;5.53;;;;;;;27.27;56.40;100049.09;1756408;81;21137;-75
2023/06/24 08:30:35;;;;;;;13.08;5.58;;;;;;;27.25;56.65;100051.39;1756482;80;21573;-74
2023/06/24 08:33:05;;;;;;;12.10;5.28;;;;;;;27.21;56.70;100055.98;1756539;82;21137;-74
2023/06/24 08:35:34;;;;;;;12.63;5.53;;;;;;;27.15;56.75;100053.03;1757093;82;21109;-72
2023/06/24 08:38:04;;;;;;;14.43;5.87;;;;;;;27.06;56.92;100056.33;1759205;82;21109;-72
2023/06/24 08:40:34;;;;;;;13.62;6.03;;;;;;;27.02;57.33;100066.55;1758941;82;21106;-70
2023/06/24 08:43:06;;;;;;;14.35;5.67;;;;;;;26.95;57.29;100060.48;1731329;82;21137;-74
2023/06/24 08:45:36;;;;;;;11.10;5.67;;;;;;;26.92;57.73;100066.74;1730188;82;21169;-73
2023/06/24 08:48:05;;;;;;;11.80;5.22;;;;;;;26.87;58.17;100067.69;1756231;81;21129;-75
2023/06/24 08:50:41;;;;;;;11.05;5.40;;;;;;;26.81;58.28;100064.16;1756540;81;21110;-74
2023/06/24 08:53:11;;;;;;;10.58;5.28;;;;;;;26.74;58.44;100060.94;1757019;81;21074;-73
2023/06/24 08:55:44;;;;;;;13.48;5.72;;;;;;;26.69;58.31;100062.45;1759134;81;21145;-74
2023/06/24 08:58:14;;;;;;;16.45;5.87;;;;;;;26.62;58.29;100062.00;1749281;81;21218;-73
2023/06/24 09:00:44;;;;;;;14.28;5.62;;;;;;;26.61;58.73;100060.91;1747639;81;21176;-73
2023/06/24 09:03:14;;;;;;;12.28;5.65;;;;;;;26.62;59.17;100062.58;1728752;83;21159;-74
2023/06/24 09:05:44;;;;;;;14.85;5.55;;;;;;;26.60;59.16;100063.45;1760226;81;21129;-73
2023/06/24 09:08:18;;;;;;;12.40;4.95;;;;;;;26.56;59.13;100061.02;1739390;81;21203;-74
2023/06/24 09:10:56;;;;;;;11.12;5.70;;;;;;;26.51;59.32;100061.37;1762996;81;21132;-74
2023/06/24 09:13:36;;;;;;;13.93;5.37;;;;;;;26.48;59.96;100054.97;1666148;85;21158;-74
2023/06/24 09:16:14;;;;;;;13.43;5.78;;;;;;;26.41;59.63;100053.16;1650554;87;21135;-74
2023/06/24 09:18:50;;;;;;;11.80;5.30;;;;;;;26.40;59.72;100056.27;1628921;87;21186;-74
2023/06/24 09:24:10;;;;;;;12.43;5.50;;;;;;;26.41;59.86;100054.56;1628947;87;22252;-71
2023/06/24 09:26:48;;;;;;;13.53;5.37;;;;;;;26.46;59.82;100062.05;1650731;87;21162;-74
2023/06/24 09:29:16;;;;;;;11.10;5.62;;;;;;;26.44;59.69;100053.10;1650839;87;21685;-75
2023/06/24 09:31:54;;;;;;;12.88;5.25;;;;;;;26.44;59.85;100064.34;1700685;82;21152;-70
2023/06/24 09:34:23;;;;;;;10.95;6.08;;;;;;;26.44;60.12;100073.60;1760216;80;21991;-73
2023/06/24 09:36:55;;;;;;;9.35;5.15;;;;;;;26.46;60.04;100064.86;1728668;83;21207;-71
2023/06/24 09:39:32;;;;;;;12.03;6.20;;;;;;;26.47;59.97;100070.74;1734759;81;21141;-73
2023/06/24 09:42:00;;;;;;;11.28;5.50;;;;;;;26.54;59.80;100067.78;1728137;83;21195;-69
2023/06/24 09:44:29;;;;;;;17.62;5.83;;;;;;;26.62;60.08;100074.65;1760319;81;22092;-68
2023/06/24 09:46:59;;;;;;;13.18;6.28;;;;;;;26.61;59.13;100070.17;1739567;82;21184;-75
2023/06/24 09:49:30;;;;;;;11.73;6.20;;;;;;;26.58;59.11;100075.02;1739749;82;21153;-74
2023/06/24 09:51:59;;;;;;;12.93;5.40;;;;;;;26.57;59.11;100066.89;1762741;81;21149;-70
2023/06/24 09:54:29;;;;;;;10.50;5.67;;;;;;;26.56;59.15;100063.83;1752180;81;21141;-72
2023/06/24 09:57:02;;;;;;;11.30;5.80;;;;;;;26.57;59.45;100065.48;1762464;81;21536;-75
2023/06/24 09:59:33;;;;;;;8.50;5.47;;;;;;;26.59;59.22;100062.62;1777128;80;21130;-75
2023/06/24 10:02:04;;;;;;;10.48;4.83;;;;;;;26.63;58.99;100058.61;1704258;83;21156;-73
2023/06/24 10:04:33;;;;;;;17.42;6.10;;;;;;;26.67;58.92;100054.90;1779347;80;21596;-70
2023/06/24 10:07:04;;;;;;;13.13;5.58;;;;;;;26.67;59.02;100049.28;1760142;81;21146;-70
2023/06/24 10:09:34;;;;;;;12.78;5.60;;;;;;;26.65;59.04;100050.13;1760208;81;21182;-67
2023/06/24 10:12:04;;;;;;;9.05;5.20;;;;;;;26.68;59.23;100048.13;1760151;81;21157;-69
2023/06/24 10:14:36;;;;;;;13.40;6.03;;;;;;;26.77;59.28;100044.84;1760435;81;21165;-65
2023/06/24 10:17:05;;;;;;;12.25;6.12;;;;;;;26.88;59.33;100032.80;1759473;81;21573;-70
2023/06/24 10:19:41;;;;;;;9.73;5.10;;;;;;;26.96;58.39;100028.41;1760428;81;21626;-70
2023/06/24 10:22:11;;;;;;;13.80;5.80;;;;;;;27.06;57.48;100031.02;1735573;81;21181;-71
2023/06/24 10:24:42;;;;;;;15.00;6.10;;;;;;;27.11;57.59;100032.31;1747513;81;21137;-71
2023/06/24 10:27:16;;;;;;;12.63;5.80;;;;;;;27.20;57.55;100032.39;1760375;81;21166;-72
2023/06/24 10:29:47;;;;;;;14.75;6.60;;;;;;;27.33;57.12;100038.58;1760472;81;21741;-71
2023/06/24 10:32:17;;;;;;;13.93;6.80;;;;;;;27.38;56.81;100036.47;1760268;81;21114;-72
2023/06/24 10:34:47;;;;;;;11.63;6.30;;;;;;;27.46;56.57;100037.11;1760195;81;21125;-72
2023/06/24 10:37:24;;;;;;;8.95;5.50;;;;;;;27.52;56.37;100031.36;1760256;81;21177;-72
2023/06/24 10:39:57;;;;;;;11.67;5.77;;;;;;;27.52;55.77;100033.59;1747915;81;21158;-70
2023/06/24 10:42:43;;;;;;;11.80;5.83;;;;;;;27.54;55.71;100026.24;1734792;81;21114;-72
2023/06/24 10:45:15;;;;;;;12.45;6.80;;;;;;;27.58;55.58;100031.48;1757140;81;21137;-71
2023/06/24 10:47:48;;;;;;;15.48;6.28;;;;;;;27.61;55.39;100028.89;1757057;81;21102;-71
2023/06/24 10:50:21;;;;;;;12.43;6.10;;;;;;;27.69;55.18;100025.31;1753695;82;21125;-69
2023/06/24 10:52:57;;;;;;;9.93;5.58;;;;;;;27.77;54.54;100022.30;1757259;81;21126;-71
2023/06/24 10:55:26;;;;;;;11.30;6.00;;;;;;;27.82;54.15;100024.98;1759706;81;21156;-70
2023/06/24 10:57:58;;;;;;;12.45;6.55;;;;;;;27.88;54.31;100026.50;1753476;81;21122;-70
2023/06/24 11:00:26;;;;;;;9.78;5.70;;;;;;;27.94;53.38;100029.44;1717049;83;21163;-70
2023/06/24 11:02:55;;;;;;;10.03;6.05;;;;;;;27.99;53.27;100024.27;1730909;82;21167;-70
2023/06/24 11:05:25;;;;;;;14.15;5.42;;;;;;;27.99;53.13;100025.11;1749807;80;21596;-68
2023/06/24 11:07:54;;;;;;;10.55;5.87;;;;;;;27.97;53.06;100019.55;1789882;80;21612;-71
2023/06/24 11:10:23;;;;;;;13.38;5.47;;;;;;;27.94;53.55;100017.34;1791607;80;21176;-69
2023/06/24 11:12:52;;;;;;;13.85;6.15;;;;;;;27.97;53.49;100016.16;1791402;80;21161;-70
2023/06/24 11:15:21;;;;;;;10.82;5.90;;;;;;;28.00;53.25;100009.87;1789816;80;21106;-71
2023/06/24 11:17:51;;;;;;;10.50;6.03;;;;;;;28.02;52.95;100007.56;1790163;80;21134;-71
2023/06/24 11:20:21;;;;;;;12.28;5.62;;;;;;;28.06;53.43;100010.56;1790012;80;21117;-71
2023/06/24 11:22:51;;;;;;;9.48;5.20;;;;;;;28.12;52.58;100021.11;1789856;80;21593;-70
2023/06/24 11:25:24;;;;;;;11.65;6.65;;;;;;;28.14;51.87;100018.80;1790180;80;21102;-71
2023/06/24 11:27:53;;;;;;;12.82;6.05;;;;;;;28.15;51.31;100017.65;1789884;80;21090;-71
2023/06/24 11:30:23;;;;;;;9.85;6.30;;;;;;;28.16;51.61;100012.27;1790098;80;21678;-70
2023/06/24 11:32:53;;;;;;;9.00;5.62;;;;;;;28.16;51.93;100013.09;1765797;80;21030;-72
2023/06/24 11:35:21;;;;;;;14.83;6.12;;;;;;;28.17;51.49;100011.94;1790101;80;21030;-71
2023/06/24 11:37:51;;;;;;;9.40;5.67;;;;;;;28.16;50.78;100007.46;1766239;80;21185;-72